3MA4 weather

North Chatham Heliport
Chatham, Massachusetts, United States

Public forecast

Using degrees Fahrenheit for public forecast. Weather courtesy of forecast.io.

METAR (pilot weather report)

Closest report is Chatham Municipal Airport, 1.9 nm (3.5 km) SSW. Retrieved 2019/07/23 16:14 UTC (27 minutes ago):

KCQX 231614Z AUTO 17012G25KT 1 3/4SM VCTS RA BR FEW006 BKN015 OVC021 21/20 A2963 RMK AO2 VIS 1V4 LTG DSNT W-N PRESFR P0005 T02060200

TAF (pilot weather forecast)

Closest forecast is Barnstable Municipal Boardman Polando Field, 14.4 nm (26.6 km) W. Retrieved 2019/07/23 12:27 UTC (4 hours ago):

TAF KHYA 231124Z 2312/2412 06007KT 3SM -RA BR OVC008 TEMPO 2313/2317 2SM RA BR OVC004 FM231700 01010G20KT 3SM -RA BR OVC008 FM232000 01010G20KT P6SM VCSH OVC008 FM240000 01005KT P6SM VCSH OVC020 FM240500 03003KT 5SM -RA BR OVC008